Portada
METAR-TAF:

METAR-TAF

Aeroports :

Brest, Bielorússia

latitud: 52-06-30N, longitud: 023-53-48E, altitud: 143 m

Observació

L'informe es va fer fa 6 hores i 42 minuts, a les 13:30 UTC
Vent 8 kt del Oest
Temperatura 25°C
Humitat 41%
Pressió 1016 hPa
Visibilitat: 8000 m
Cel ennuvolat a una alçada de 4300 ft
Núvols disperses a una alçada de 10000 ft

METAR: UMBB 231330Z 28004MPS 8000 BKN043 SCT100 25/11 Q1016 R29/CLRD// NOSIG

Hora: 23:12 (20:12 UTC)

Pronòstic

L'informe es va fer fa 9 hores i 12 minuts, a les 11:00 UTC
Pronòstic vàlid del 23 a les 12 UTC al 23 a les 21 UTC
Vent 6 kt del Oest
Visibilitat 10 km o més
Cel ennuvolat a una alçada de 3000 ft

TAF: UMBB 231100Z 2312/2321 28003MPS 9999 BKN030 TX25/2313Z TN22/2321Z

Observacions i pronòstics meteorològics de més de 4000 aeroports (METAR i TAF).

Les estacions disponibles són els punts grocs i vermells al mapa.

Posi el ratolí al punt desitjat per veure el nom de l'estació.

Feu clic per veure les observacions i els pronòstics meteorològics.

Per canviar el mapa: feu clic els botons verds amb una creu de color negre per apropar; al botó verd amb un guió per allunyar la imatge; o en les fletxes verdes per a mapes adjacents.


METAR-TAF: